createdAt,value
2022-11-28T00:01:23.136Z,17.73
2022-11-28T00:03:50.106Z,17.27
2022-11-28T00:06:17.508Z,16.03
2022-11-28T00:08:44.874Z,17.63
2022-11-28T00:11:13.635Z,18.23
2022-11-28T00:13:41.233Z,17.17
2022-11-28T00:16:09.153Z,18.17
2022-11-28T00:18:35.953Z,21.10
2022-11-28T00:21:05.774Z,20.03
2022-11-28T00:23:33.549Z,17.60
2022-11-28T00:26:03.658Z,16.87
2022-11-28T00:28:30.405Z,22.60
2022-11-28T00:30:57.257Z,18.43
2022-11-28T00:33:24.098Z,17.97
2022-11-28T00:35:51.191Z,22.60
2022-11-28T00:38:17.919Z,17.23
2022-11-28T00:40:44.620Z,18.60
2022-11-28T00:43:12.872Z,16.93
2022-11-28T00:45:39.736Z,19.10
2022-11-28T00:48:06.492Z,19.43
2022-11-28T00:50:33.152Z,18.07
2022-11-28T00:53:00.333Z,16.73
2022-11-28T00:55:27.191Z,19.20
2022-11-28T00:57:55.272Z,18.83
2022-11-28T01:00:22.244Z,18.13
2022-11-28T01:02:48.960Z,20.70
2022-11-28T01:05:15.800Z,16.33
2022-11-28T01:07:44.769Z,16.50
2022-11-28T01:10:12.062Z,15.87
2022-11-28T01:12:39.055Z,18.30
2022-11-28T01:15:08.832Z,16.53
2022-11-28T01:17:36.399Z,19.93
2022-11-28T01:20:08.626Z,17.23
2022-11-28T01:22:35.325Z,19.50
2022-11-28T01:25:01.977Z,16.00
2022-11-28T01:27:28.649Z,16.33
2022-11-28T01:29:55.325Z,18.80
2022-11-28T01:32:22.080Z,16.00
2022-11-28T01:34:48.830Z,16.60
2022-11-28T01:37:15.487Z,16.30
2022-11-28T01:39:42.150Z,15.23
2022-11-28T01:42:16.902Z,17.67
2022-11-28T01:44:49.346Z,19.40
2022-11-28T01:47:20.889Z,16.13
2022-11-28T01:49:49.276Z,14.60
2022-11-28T01:52:19.004Z,16.60
2022-11-28T01:54:50.701Z,13.50
2022-11-28T01:57:21.185Z,14.27
2022-11-28T01:59:55.534Z,14.07
2022-11-28T02:02:39.438Z,13.30
2022-11-28T02:05:06.593Z,13.83
2022-11-28T02:07:34.540Z,12.77
2022-11-28T02:10:03.249Z,12.67
2022-11-28T02:13:03.150Z,11.40
2022-11-28T02:15:52.877Z,9.73
2022-11-28T02:18:34.551Z,10.10
2022-11-28T02:21:10.294Z,10.13
2022-11-28T02:24:04.134Z,9.73
2022-11-28T02:26:55.095Z,9.90
2022-11-28T02:29:49.700Z,10.40
2022-11-28T02:32:40.129Z,8.90
2022-11-28T02:35:12.472Z,10.03
2022-11-28T02:38:00.823Z,9.47
2022-11-28T02:40:33.452Z,7.80
2022-11-28T02:43:05.401Z,8.30
2022-11-28T02:45:37.278Z,8.13
2022-11-28T02:48:13.162Z,7.83
2022-11-28T02:50:53.044Z,8.93
2022-11-28T02:53:24.452Z,10.67
2022-11-28T02:55:53.247Z,9.90
2022-11-28T02:58:19.966Z,9.53
2022-11-28T03:00:48.922Z,8.60
2022-11-28T03:03:21.715Z,8.03
2022-11-28T03:05:56.519Z,8.20
2022-11-28T03:08:41.710Z,7.80
2022-11-28T03:11:43.253Z,8.97
2022-11-28T03:14:38.822Z,9.73
2022-11-28T03:17:32.851Z,11.43
2022-11-28T03:20:31.479Z,9.17
2022-11-28T03:23:17.792Z,8.83
2022-11-28T03:26:01.567Z,8.67
2022-11-28T03:28:58.008Z,9.23
2022-11-28T03:31:49.264Z,8.83
2022-11-28T03:34:19.486Z,9.10
2022-11-28T03:36:52.456Z,9.07
2022-11-28T03:39:22.839Z,8.70
2022-11-28T03:42:12.904Z,9.63
2022-11-28T03:44:45.530Z,9.20
2022-11-28T03:47:12.918Z,8.90
2022-11-28T03:49:43.243Z,8.53
2022-11-28T03:52:20.361Z,11.60
2022-11-28T03:54:50.144Z,10.27
2022-11-28T03:57:35.454Z,10.10
2022-11-28T04:00:10.682Z,12.53
2022-11-28T04:02:56.137Z,8.90
2022-11-28T04:05:32.765Z,8.40
2022-11-28T04:08:26.778Z,9.80
2022-11-28T04:11:05.222Z,9.13
2022-11-28T04:13:53.888Z,9.20
2022-11-28T04:16:50.586Z,8.53
2022-11-28T04:19:29.871Z,9.43
2022-11-28T04:22:02.767Z,10.73
2022-11-28T04:24:34.431Z,9.73
2022-11-28T04:27:05.184Z,9.33
2022-11-28T04:29:37.145Z,10.77
2022-11-28T04:32:06.104Z,8.23
2022-11-28T04:34:35.922Z,10.23
2022-11-28T04:37:09.781Z,10.67
2022-11-28T04:39:37.848Z,10.57
2022-11-28T04:42:11.069Z,9.13
2022-11-28T04:44:47.168Z,10.10
2022-11-28T04:47:14.034Z,10.57
2022-11-28T04:49:40.711Z,13.27
2022-11-28T04:52:14.778Z,11.90
2022-11-28T04:55:22.358Z,11.30
2022-11-28T04:57:57.530Z,10.97
2022-11-28T05:00:26.168Z,9.80
2022-11-28T05:02:54.652Z,10.37
2022-11-28T05:05:25.518Z,12.27
2022-11-28T05:07:53.249Z,12.77
2022-11-28T05:10:20.355Z,10.37
2022-11-28T05:12:47.112Z,10.43
2022-11-28T05:15:18.881Z,8.63
2022-11-28T05:17:46.810Z,9.10
2022-11-28T05:20:14.295Z,8.70
2022-11-28T05:22:41.581Z,7.93
2022-11-28T05:25:08.592Z,8.70
2022-11-28T05:27:35.619Z,8.63
2022-11-28T05:30:02.678Z,8.03
2022-11-28T05:32:31.207Z,9.97
2022-11-28T05:34:58.109Z,11.33
2022-11-28T05:37:25.680Z,14.80
2022-11-28T05:39:52.428Z,11.27
2022-11-28T05:42:19.196Z,10.47
2022-11-28T05:44:45.917Z,11.03
2022-11-28T05:47:12.606Z,10.40
2022-11-28T05:49:39.331Z,9.20
2022-11-28T05:52:06.009Z,11.60
2022-11-28T05:54:32.904Z,9.80
2022-11-28T05:56:59.692Z,12.50
2022-11-28T05:59:26.704Z,10.87
2022-11-28T06:01:53.521Z,13.07
2022-11-28T06:04:20.245Z,10.90
2022-11-28T06:06:51.327Z,10.93
2022-11-28T06:09:20.934Z,10.77
2022-11-28T06:11:51.356Z,11.87
2022-11-28T06:14:18.025Z,11.33
2022-11-28T06:16:44.740Z,10.23
2022-11-28T06:19:12.885Z,10.77
2022-11-28T06:21:50.103Z,10.40
2022-11-28T06:24:16.725Z,10.20
2022-11-28T06:26:43.426Z,11.50
2022-11-28T06:29:10.116Z,9.57
2022-11-28T06:31:37.294Z,9.93
2022-11-28T06:34:03.974Z,9.70
2022-11-28T06:36:30.920Z,10.10
2022-11-28T06:38:57.708Z,9.83
2022-11-28T06:41:24.365Z,11.27
2022-11-28T06:43:51.289Z,10.63
2022-11-28T06:46:21.499Z,13.37
2022-11-28T06:48:51.140Z,10.10
2022-11-28T06:51:19.075Z,10.57
2022-11-28T06:53:45.776Z,9.97
2022-11-28T06:56:15.303Z,12.77
2022-11-28T06:58:43.084Z,9.93
2022-11-28T07:01:14.342Z,11.23
2022-11-28T07:03:41.233Z,10.50
2022-11-28T07:06:08.807Z,8.40
2022-11-28T07:08:36.442Z,9.43
2022-11-28T07:11:11.676Z,10.07
2022-11-28T07:13:39.268Z,13.17
2022-11-28T07:16:07.343Z,9.80
2022-11-28T07:18:34.765Z,11.20
2022-11-28T07:21:01.441Z,12.67
2022-11-28T07:23:28.536Z,12.50
2022-11-28T07:25:59.880Z,9.90
2022-11-28T07:28:27.952Z,12.97
2022-11-28T07:31:26.654Z,10.07
2022-11-28T07:33:54.006Z,11.93
2022-11-28T07:36:25.820Z,12.47
2022-11-28T07:38:58.758Z,11.80
2022-11-28T07:41:28.542Z,11.23
2022-11-28T07:43:58.101Z,11.10
2022-11-28T07:46:25.677Z,11.67
2022-11-28T07:48:52.618Z,12.90
2022-11-28T07:51:31.792Z,13.67
2022-11-28T07:53:59.154Z,12.40
2022-11-28T07:56:44.289Z,11.13
2022-11-28T07:59:16.319Z,10.27
2022-11-28T08:01:43.338Z,13.07
2022-11-28T08:04:10.946Z,11.97
2022-11-28T08:06:40.483Z,12.33
2022-11-28T08:09:08.191Z,12.80
2022-11-28T08:11:35.207Z,11.87
2022-11-28T08:14:03.313Z,12.87
2022-11-28T08:16:30.536Z,11.73
2022-11-28T08:19:00.339Z,13.23
2022-11-28T08:21:29.868Z,11.73
2022-11-28T08:23:59.786Z,13.17
2022-11-28T08:26:30.548Z,11.90
2022-11-28T08:28:58.871Z,11.80
2022-11-28T08:31:28.577Z,13.90
2022-11-28T08:33:57.183Z,11.07
2022-11-28T08:36:24.045Z,11.77
2022-11-28T08:39:09.474Z,11.80
2022-11-28T08:41:38.370Z,10.97
2022-11-28T08:44:05.129Z,11.53
2022-11-28T08:46:33.250Z,10.93
2022-11-28T08:49:04.149Z,11.90
2022-11-28T08:51:31.333Z,12.03
2022-11-28T08:53:59.717Z,12.97
2022-11-28T08:56:27.181Z,10.13
2022-11-28T08:58:54.193Z,11.67
2022-11-28T09:01:25.977Z,12.90
2022-11-28T09:03:54.540Z,12.43
2022-11-28T09:06:22.809Z,12.23
2022-11-28T09:08:50.295Z,11.70
2022-11-28T09:11:19.229Z,13.67
2022-11-28T09:13:46.350Z,14.63
2022-11-28T09:16:14.367Z,10.90
2022-11-28T09:18:41.178Z,12.30
2022-11-28T09:21:10.279Z,12.57
2022-11-28T09:23:38.546Z,12.90
2022-11-28T09:26:16.580Z,14.47
2022-11-28T09:28:43.885Z,13.37
2022-11-28T09:31:12.598Z,11.40
2022-11-28T09:33:39.642Z,12.40
2022-11-28T09:36:08.578Z,12.37
2022-11-28T09:38:36.582Z,12.63
2022-11-28T09:41:04.008Z,11.33
2022-11-28T09:43:38.440Z,12.90
2022-11-28T09:46:12.400Z,10.77
2022-11-28T09:48:45.573Z,12.73
2022-11-28T09:51:29.682Z,11.50
2022-11-28T09:54:25.634Z,11.33
2022-11-28T09:56:52.530Z,10.27
2022-11-28T09:59:26.743Z,11.10
2022-11-28T10:01:56.142Z,10.43
2022-11-28T10:04:42.141Z,10.67
2022-11-28T10:07:16.931Z,11.30
2022-11-28T10:10:04.918Z,12.67
2022-11-28T10:12:57.448Z,10.37
2022-11-28T10:15:38.683Z,10.10
2022-11-28T10:18:23.347Z,13.23
2022-11-28T10:20:54.944Z,13.60
2022-11-28T10:23:30.273Z,12.00
2022-11-28T10:26:01.859Z,10.83
2022-11-28T10:28:42.254Z,15.23
2022-11-28T10:31:49.281Z,13.83
2022-11-28T10:34:40.664Z,16.97
2022-11-28T10:37:15.983Z,11.00
2022-11-28T10:39:44.768Z,13.60
2022-11-28T10:42:26.519Z,14.00
2022-11-28T10:45:18.314Z,10.93
2022-11-28T10:48:37.915Z,13.70
2022-11-28T10:51:29.648Z,9.63
2022-11-28T10:54:20.474Z,10.03
2022-11-28T10:57:38.059Z,11.70
2022-11-28T11:00:20.357Z,10.13
2022-11-28T11:02:57.385Z,11.27
2022-11-28T11:05:30.596Z,9.27
2022-11-28T11:07:58.495Z,12.67
2022-11-28T11:10:51.521Z,11.20
2022-11-28T11:13:56.400Z,8.63
2022-11-28T11:16:23.783Z,11.07
2022-11-28T11:18:52.534Z,12.30
2022-11-28T11:21:28.404Z,11.00
2022-11-28T11:24:13.101Z,8.27
2022-11-28T11:26:43.581Z,11.67
2022-11-28T11:29:28.335Z,9.10
2022-11-28T11:31:55.658Z,9.57
2022-11-28T11:34:24.125Z,8.60
2022-11-28T11:36:51.441Z,8.70
2022-11-28T11:39:25.295Z,8.10
2022-11-28T11:42:11.097Z,8.73
2022-11-28T11:44:38.239Z,8.53
2022-11-28T11:47:08.451Z,7.83
2022-11-28T11:49:41.784Z,9.27
2022-11-28T11:52:12.784Z,9.20
2022-11-28T11:55:12.234Z,6.77
2022-11-28T11:57:53.806Z,6.37
2022-11-28T12:00:23.848Z,7.70
2022-11-28T12:02:58.109Z,6.33
2022-11-28T12:06:12.084Z,6.20
2022-11-28T12:08:35.564Z,6.40
2022-11-28T12:11:27.703Z,7.23
2022-11-28T12:13:55.624Z,6.40
2022-11-28T12:16:46.879Z,6.10
2022-11-28T12:19:52.332Z,5.50
2022-11-28T12:22:44.248Z,6.00
2022-11-28T12:25:48.938Z,5.00
2022-11-28T12:28:47.409Z,4.27
2022-11-28T12:31:51.967Z,4.60
2022-11-28T12:34:30.638Z,4.23
2022-11-28T12:38:02.926Z,5.77
2022-11-28T12:40:56.044Z,4.67
2022-11-28T12:43:25.483Z,5.50
2022-11-28T12:46:25.592Z,4.17
2022-11-28T12:48:58.937Z,5.60
2022-11-28T12:51:36.549Z,7.27
2022-11-28T12:54:12.545Z,4.50
2022-11-28T12:57:04.010Z,5.67
2022-11-28T12:59:58.039Z,4.30
2022-11-28T13:02:43.021Z,3.30
2022-11-28T13:05:35.757Z,4.20
2022-11-28T13:08:36.182Z,3.63
2022-11-28T13:11:24.696Z,4.03
2022-11-28T13:13:59.706Z,3.45
2022-11-28T13:16:52.421Z,3.93
2022-11-28T13:19:32.425Z,4.17
2022-11-28T13:22:09.411Z,5.43
2022-11-28T13:24:40.931Z,4.35
2022-11-28T13:27:33.304Z,5.50
2022-11-28T13:30:14.005Z,3.93
2022-11-28T13:32:53.712Z,4.73
2022-11-28T13:35:20.854Z,3.60
2022-11-28T13:38:35.673Z,4.18
2022-11-28T13:42:06.042Z,4.20
2022-11-28T13:44:22.117Z,4.70
2022-11-28T13:46:49.119Z,5.07
2022-11-28T13:49:25.386Z,4.97
2022-11-28T13:52:20.319Z,6.95
2022-11-28T13:54:54.255Z,5.33
2022-11-28T13:57:39.007Z,7.00
2022-11-28T14:00:23.776Z,5.95
2022-11-28T14:02:58.111Z,5.13
2022-11-28T14:05:49.078Z,5.97
2022-11-28T14:08:39.274Z,5.53
2022-11-28T14:11:41.152Z,4.83
2022-11-28T14:14:16.886Z,4.40
2022-11-28T14:17:09.802Z,4.47
2022-11-28T14:19:58.268Z,5.13
2022-11-28T14:22:43.323Z,6.85
2022-11-28T14:25:46.818Z,6.23
2022-11-28T14:28:28.178Z,15.13
2022-11-28T14:31:09.970Z,22.05
2022-11-28T14:33:45.289Z,12.57
2022-11-28T14:36:35.062Z,9.03
2022-11-28T14:39:10.607Z,9.00
2022-11-28T14:42:03.471Z,6.93
2022-11-28T14:44:50.640Z,5.93
2022-11-28T14:47:39.695Z,6.03
2022-11-28T14:50:17.570Z,7.93
2022-11-28T14:52:48.482Z,6.47
2022-11-28T14:55:23.449Z,7.93
2022-11-28T14:57:58.171Z,7.83
2022-11-28T15:00:27.853Z,8.63
2022-11-28T15:03:39.278Z,10.27
2022-11-28T15:06:22.509Z,9.37
2022-11-28T15:09:09.926Z,10.70
2022-11-28T15:11:58.512Z,10.20
2022-11-28T15:14:32.237Z,11.50
2022-11-28T15:17:03.252Z,12.90
2022-11-28T15:19:48.880Z,11.93
2022-11-28T15:22:38.173Z,9.37
2022-11-28T15:25:17.296Z,8.97
2022-11-28T15:27:44.007Z,9.80
2022-11-28T15:30:26.681Z,10.73
2022-11-28T15:32:59.832Z,10.17
2022-11-28T15:35:27.507Z,9.67
2022-11-28T15:37:57.469Z,10.90
2022-11-28T15:40:30.217Z,11.67
2022-11-28T15:42:58.483Z,11.30
2022-11-28T15:45:35.455Z,14.13
2022-11-28T15:48:02.145Z,10.27
2022-11-28T15:50:30.939Z,11.40
2022-11-28T15:53:16.969Z,10.07
2022-11-28T15:55:44.414Z,10.60
2022-11-28T15:58:21.752Z,11.37
2022-11-28T16:00:56.359Z,9.03
2022-11-28T16:03:26.653Z,8.03
2022-11-28T16:05:55.731Z,8.93
2022-11-28T16:08:36.596Z,9.70
2022-11-28T16:11:05.537Z,9.20
2022-11-28T16:13:33.552Z,9.67
2022-11-28T16:16:01.664Z,10.23
2022-11-28T16:18:29.567Z,9.23
2022-11-28T16:20:58.686Z,8.90
2022-11-28T16:23:33.823Z,7.80
2022-11-28T16:26:22.310Z,11.00
2022-11-28T16:29:06.985Z,8.23
2022-11-28T16:31:34.796Z,7.80
2022-11-28T16:34:02.727Z,8.20
2022-11-28T16:36:37.879Z,9.60
2022-11-28T16:39:10.525Z,12.20
2022-11-28T16:41:39.809Z,8.93
2022-11-28T16:44:12.104Z,11.23
2022-11-28T16:46:41.646Z,9.27
2022-11-28T16:49:43.932Z,12.90
2022-11-28T16:52:24.027Z,8.97
2022-11-28T16:54:52.274Z,9.67
2022-11-28T16:57:20.379Z,9.10
2022-11-28T16:59:48.155Z,12.27
2022-11-28T17:02:20.355Z,10.27
2022-11-28T17:04:48.913Z,10.77
2022-11-28T17:07:19.175Z,13.37
2022-11-28T17:09:47.626Z,10.93
2022-11-28T17:12:31.201Z,12.57
2022-11-28T17:14:58.667Z,11.67
2022-11-28T17:17:25.421Z,11.33
2022-11-28T17:19:52.305Z,10.47
2022-11-28T17:22:25.804Z,12.37
2022-11-28T17:24:58.395Z,12.43
2022-11-28T17:27:25.037Z,13.30
2022-11-28T17:29:52.003Z,11.97
2022-11-28T17:32:18.913Z,12.33
2022-11-28T17:34:48.293Z,15.10
2022-11-28T17:37:15.226Z,13.67
2022-11-28T17:40:05.022Z,12.80
2022-11-28T17:42:32.182Z,11.93
2022-11-28T17:44:58.815Z,18.90
2022-11-28T17:47:25.601Z,13.47
2022-11-28T17:49:52.429Z,45.80
2022-11-28T17:52:20.743Z,49.97
2022-11-28T17:54:47.539Z,53.77
2022-11-28T17:57:14.162Z,39.67
2022-11-28T17:59:41.281Z,18.80
2022-11-28T18:02:11.136Z,14.13
2022-11-28T18:04:37.896Z,14.27
2022-11-28T18:07:04.656Z,15.40
2022-11-28T18:09:31.337Z,14.17
2022-11-28T18:11:57.989Z,16.10
2022-11-28T18:14:24.664Z,15.73
2022-11-28T18:16:51.387Z,13.53
2022-11-28T18:19:18.126Z,13.20
2022-11-28T18:21:44.831Z,13.57
2022-11-28T18:24:11.612Z,14.43
2022-11-28T18:26:39.021Z,14.00
2022-11-28T18:29:07.153Z,16.00
2022-11-28T18:31:34.486Z,14.93
2022-11-28T18:34:04.160Z,15.53
2022-11-28T18:36:32.418Z,15.63
2022-11-28T18:39:01.766Z,14.63
2022-11-28T18:41:29.229Z,14.13
2022-11-28T18:44:00.784Z,14.50
2022-11-28T18:46:28.845Z,16.23
2022-11-28T18:48:55.927Z,16.20
2022-11-28T18:51:26.834Z,18.07
2022-11-28T18:53:54.986Z,15.70
2022-11-28T18:56:22.064Z,15.10
2022-11-28T18:58:51.850Z,15.30
2022-11-28T19:01:23.130Z,15.00
2022-11-28T19:03:56.040Z,16.07
2022-11-28T19:06:22.748Z,15.70
2022-11-28T19:08:53.268Z,15.07
2022-11-28T19:11:20.451Z,19.47
2022-11-28T19:13:48.613Z,19.87
2022-11-28T19:16:22.858Z,17.63
2022-11-28T19:18:49.942Z,18.63
2022-11-28T19:21:19.653Z,16.60
2022-11-28T19:23:47.201Z,16.83
2022-11-28T19:26:15.560Z,16.40
2022-11-28T19:28:42.753Z,17.60
2022-11-28T19:31:18.050Z,18.07
2022-11-28T19:33:44.890Z,17.07
2022-11-28T19:36:13.921Z,16.60
2022-11-28T19:38:41.745Z,17.87
2022-11-28T19:41:10.510Z,18.80
2022-11-28T19:43:37.303Z,18.37
2022-11-28T19:46:04.426Z,19.50
2022-11-28T19:48:33.015Z,18.27
2022-11-28T19:51:00.051Z,18.77
2022-11-28T19:53:28.945Z,21.27
2022-11-28T19:55:56.241Z,19.13
2022-11-28T19:58:23.224Z,21.60
2022-11-28T20:00:49.944Z,18.87
2022-11-28T20:03:16.614Z,21.77
2022-11-28T20:05:43.282Z,19.33
2022-11-28T20:08:10.075Z,18.07
2022-11-28T20:10:39.232Z,20.83
2022-11-28T20:13:06.672Z,19.07
2022-11-28T20:15:36.766Z,19.30
2022-11-28T20:18:03.614Z,18.57
2022-11-28T20:20:30.595Z,18.40
2022-11-28T20:22:57.601Z,18.50
2022-11-28T20:25:24.310Z,18.33
2022-11-28T20:27:51.195Z,19.03
2022-11-28T20:30:18.594Z,18.90
2022-11-28T20:32:45.497Z,19.97
2022-11-28T20:35:12.764Z,19.57
2022-11-28T20:37:39.447Z,21.07
2022-11-28T20:40:06.959Z,25.63
2022-11-28T20:42:39.488Z,21.87
2022-11-28T20:45:07.203Z,20.77
2022-11-28T20:47:34.854Z,18.53
2022-11-28T20:50:01.665Z,22.30
2022-11-28T20:52:28.353Z,20.67
2022-11-28T20:54:55.017Z,18.27
2022-11-28T20:57:22.579Z,17.97
2022-11-28T20:59:49.555Z,21.00
2022-11-28T21:02:16.364Z,19.30
2022-11-28T21:04:43.122Z,18.60
2022-11-28T21:07:09.748Z,38.47
2022-11-28T21:09:36.396Z,26.48
2022-11-28T21:12:03.172Z,23.07
2022-11-28T21:14:30.174Z,21.60
2022-11-28T21:16:58.524Z,21.67
2022-11-28T21:19:25.604Z,23.60
2022-11-28T21:21:52.719Z,24.60
2022-11-28T21:24:19.496Z,22.70
2022-11-28T21:26:51.327Z,20.97
2022-11-28T21:29:21.371Z,18.27
2022-11-28T21:31:48.334Z,19.13
2022-11-28T21:34:16.959Z,16.92
2022-11-28T21:36:44.440Z,19.13
2022-11-28T21:39:16.637Z,20.60
2022-11-28T21:41:44.426Z,17.93
2022-11-28T21:44:11.173Z,19.03
2022-11-28T21:46:37.951Z,17.17
2022-11-28T21:49:04.689Z,18.63
2022-11-28T21:51:31.339Z,17.50
2022-11-28T21:53:58.123Z,17.87
2022-11-28T21:56:25.370Z,16.70
2022-11-28T21:58:52.441Z,17.23
2022-11-28T22:01:21.017Z,19.30
2022-11-28T22:03:47.842Z,17.83
2022-11-28T22:06:20.672Z,17.37
2022-11-28T22:08:48.686Z,18.13
2022-11-28T22:11:16.480Z,16.00
2022-11-28T22:13:45.819Z,17.67
2022-11-28T22:16:18.664Z,15.93
2022-11-28T22:18:46.804Z,15.40
2022-11-28T22:21:49.884Z,14.60
2022-11-28T22:24:03.181Z,14.63
2022-11-28T22:26:29.950Z,14.33
2022-11-28T22:28:58.757Z,13.87
2022-11-28T22:31:25.755Z,14.00
2022-11-28T22:33:53.010Z,14.13
2022-11-28T22:36:20.996Z,13.10
2022-11-28T22:38:49.605Z,13.00
2022-11-28T22:41:23.275Z,13.87
2022-11-28T22:43:55.180Z,13.70
2022-11-28T22:46:21.943Z,13.10
2022-11-28T22:48:48.750Z,13.00
2022-11-28T22:51:18.266Z,13.73
2022-11-28T22:53:45.713Z,13.63
2022-11-28T22:56:14.510Z,15.20
2022-11-28T22:58:43.658Z,13.27
2022-11-28T23:01:18.052Z,14.13
2022-11-28T23:03:45.823Z,12.73
2022-11-28T23:06:14.923Z,15.60
2022-11-28T23:08:42.124Z,13.30
2022-11-28T23:11:11.599Z,13.47
2022-11-28T23:13:39.089Z,12.20
2022-11-28T23:16:32.262Z,12.70
2022-11-28T23:19:06.943Z,13.23
2022-11-28T23:21:36.538Z,12.33
2022-11-28T23:24:03.679Z,13.90
2022-11-28T23:26:31.508Z,11.80
2022-11-28T23:29:04.082Z,12.53
2022-11-28T23:31:33.215Z,13.10
2022-11-28T23:34:00.801Z,16.30
2022-11-28T23:36:31.114Z,12.40
2022-11-28T23:38:59.914Z,12.37
2022-11-28T23:41:28.099Z,11.33
2022-11-28T23:43:54.972Z,12.63
2022-11-28T23:46:22.687Z,11.07
2022-11-28T23:48:50.338Z,11.60
2022-11-28T23:51:19.265Z,12.50
2022-11-28T23:53:46.129Z,13.83
2022-11-28T23:56:16.132Z,12.23
2022-11-28T23:58:43.478Z,12.30
